createdAt,value
2017-08-16T00:01:30.838Z,101258.53
2017-08-16T00:04:05.485Z,101252.28
2017-08-16T00:06:41.225Z,101252.62
2017-08-16T00:09:15.855Z,101260.84
2017-08-16T00:11:50.838Z,101267.36
2017-08-16T00:14:25.292Z,101268.55
2017-08-16T00:16:59.856Z,101273.23
2017-08-16T00:19:34.608Z,101275.13
2017-08-16T00:22:09.376Z,101268.52
2017-08-16T00:24:44.108Z,101266.30
2017-08-16T00:27:19.728Z,101281.16
2017-08-16T00:29:55.349Z,101277.33
2017-08-16T00:32:31.064Z,101274.94
2017-08-16T00:35:06.738Z,101276.27
2017-08-16T00:37:41.047Z,101273.10
2017-08-16T00:40:15.904Z,101290.02
2017-08-16T00:42:50.594Z,101288.08
2017-08-16T00:45:25.332Z,101298.05
2017-08-16T00:47:59.959Z,101296.72
2017-08-16T00:50:34.285Z,101298.70
2017-08-16T00:53:08.948Z,101302.53
2017-08-16T00:55:44.042Z,101306.03
2017-08-16T00:58:18.578Z,101309.33
2017-08-16T01:00:53.762Z,101300.28
2017-08-16T01:03:29.870Z,101300.11
2017-08-16T01:06:04.482Z,101298.66
2017-08-16T01:08:39.267Z,101311.09
2017-08-16T01:11:14.051Z,101303.20
2017-08-16T01:13:48.772Z,101303.10
2017-08-16T01:16:23.530Z,101312.41
2017-08-16T01:18:58.409Z,101318.23
2017-08-16T01:21:33.138Z,101319.59
2017-08-16T01:24:07.916Z,101319.16
2017-08-16T01:26:42.747Z,101323.20
2017-08-16T01:29:17.372Z,101331.45
2017-08-16T01:31:52.111Z,101330.52
2017-08-16T01:34:27.051Z,101335.06
2017-08-16T01:37:01.830Z,101338.63
2017-08-16T01:39:36.646Z,101332.20
2017-08-16T01:42:11.391Z,101319.66
2017-08-16T01:44:46.203Z,101325.11
2017-08-16T01:47:20.948Z,101338.53
2017-08-16T01:49:55.726Z,101330.62
2017-08-16T01:52:30.462Z,101335.18
2017-08-16T01:55:05.263Z,101343.00
2017-08-16T01:57:39.995Z,101346.30
2017-08-16T02:00:14.815Z,101336.39
2017-08-16T02:02:49.583Z,101337.94
2017-08-16T02:05:24.223Z,101343.34
2017-08-16T02:07:58.950Z,101353.89
2017-08-16T02:10:33.533Z,101349.35
2017-08-16T02:13:08.239Z,101348.70
2017-08-16T02:15:42.964Z,101357.41
2017-08-16T02:18:17.818Z,101358.42
2017-08-16T02:20:53.482Z,101364.45
2017-08-16T02:23:28.170Z,101361.53
2017-08-16T02:26:03.179Z,101363.63
2017-08-16T02:28:37.683Z,101374.47
2017-08-16T02:31:12.319Z,101378.77
2017-08-16T02:33:47.839Z,101381.28
2017-08-16T02:36:22.539Z,101372.38
2017-08-16T02:38:58.195Z,101373.80
2017-08-16T02:41:32.739Z,101370.09
2017-08-16T02:44:07.355Z,101377.72
2017-08-16T02:46:42.091Z,101377.97
2017-08-16T02:49:17.738Z,101385.63
2017-08-16T02:51:52.015Z,101384.78
2017-08-16T02:54:26.967Z,101384.55
2017-08-16T02:57:01.264Z,101379.19
2017-08-16T02:59:36.109Z,101383.72
2017-08-16T03:02:10.838Z,101386.96
2017-08-16T03:04:45.783Z,101388.09
2017-08-16T03:07:20.135Z,101384.37
2017-08-16T03:09:54.947Z,101380.95
2017-08-16T03:12:29.634Z,101391.59
2017-08-16T03:15:04.252Z,101398.33
2017-08-16T03:17:38.842Z,101397.70
2017-08-16T03:20:13.604Z,101403.95
2017-08-16T03:22:48.354Z,101402.44
2017-08-16T03:25:22.935Z,101406.05
2017-08-16T03:27:57.615Z,101412.67
2017-08-16T03:30:32.394Z,101418.25
2017-08-16T03:33:07.966Z,101417.56
2017-08-16T03:35:42.431Z,101424.70
2017-08-16T03:38:17.011Z,101425.69
2017-08-16T03:40:51.635Z,101423.70
2017-08-16T03:43:26.279Z,101421.23
2017-08-16T03:46:00.996Z,101428.45
2017-08-16T03:48:35.596Z,101432.63
2017-08-16T03:51:10.303Z,101425.41
2017-08-16T03:53:44.919Z,101429.63
2017-08-16T03:56:19.411Z,101436.52
2017-08-16T03:58:54.156Z,101439.34
2017-08-16T04:01:28.863Z,101445.10
2017-08-16T04:04:03.431Z,101446.42
2017-08-16T04:06:37.942Z,101447.95
2017-08-16T04:09:12.659Z,101443.51
2017-08-16T04:11:47.381Z,101455.14
2017-08-16T04:14:22.103Z,101456.45
2017-08-16T04:16:56.735Z,101453.81
2017-08-16T04:19:31.380Z,101462.43
2017-08-16T04:22:06.191Z,101467.16
2017-08-16T04:24:41.140Z,101471.70
2017-08-16T04:27:15.351Z,101476.35
2017-08-16T04:29:50.079Z,101482.33
2017-08-16T04:32:24.774Z,101484.86
2017-08-16T04:34:59.350Z,101489.11
2017-08-16T04:37:35.064Z,101491.63
2017-08-16T04:40:09.686Z,101499.53
2017-08-16T04:42:45.339Z,101498.66
2017-08-16T04:45:19.966Z,101506.14
2017-08-16T04:47:54.632Z,101505.06
2017-08-16T04:50:29.507Z,101510.02
2017-08-16T04:53:05.179Z,101514.42
2017-08-16T04:55:39.761Z,101514.70
2017-08-16T04:58:14.445Z,101517.70
2017-08-16T05:00:49.069Z,101518.06
2017-08-16T05:03:23.786Z,101522.44
2017-08-16T05:05:58.468Z,101525.73
2017-08-16T05:08:33.154Z,101522.58
2017-08-16T05:11:07.870Z,101531.39
2017-08-16T05:13:42.541Z,101533.62
2017-08-16T05:16:17.236Z,101534.27
2017-08-16T05:18:52.047Z,101542.58
2017-08-16T05:21:26.686Z,101545.41
2017-08-16T05:24:01.499Z,101546.62
2017-08-16T05:26:36.259Z,101560.20
2017-08-16T05:29:10.828Z,101563.83
2017-08-16T05:31:45.403Z,101560.14
2017-08-16T05:34:19.964Z,101564.11
2017-08-16T05:36:54.743Z,101562.66
2017-08-16T05:39:29.367Z,101579.94
2017-08-16T05:42:04.110Z,101582.23
2017-08-16T05:44:38.732Z,101582.06
2017-08-16T05:47:13.403Z,101581.27
2017-08-16T05:49:48.006Z,101580.23
2017-08-16T05:52:23.232Z,101582.24
2017-08-16T05:54:58.167Z,101588.73
2017-08-16T05:57:32.807Z,101597.63
2017-08-16T06:00:07.524Z,101603.55
2017-08-16T06:02:42.288Z,101603.19
2017-08-16T06:05:17.054Z,101597.73
2017-08-16T06:07:51.664Z,101613.70
2017-08-16T06:10:27.463Z,101612.28
2017-08-16T06:13:02.128Z,101611.89
2017-08-16T06:15:36.870Z,101617.75
2017-08-16T06:18:11.564Z,101618.88
2017-08-16T06:20:46.334Z,101619.14
2017-08-16T06:23:21.138Z,101618.70
2017-08-16T06:25:56.560Z,101619.89
2017-08-16T06:28:31.296Z,101618.11
2017-08-16T06:31:06.965Z,101625.39
2017-08-16T06:33:41.652Z,101622.38
2017-08-16T06:36:16.092Z,101632.80
2017-08-16T06:38:51.143Z,101632.34
2017-08-16T06:41:25.784Z,101630.52
2017-08-16T06:44:00.388Z,101638.65
2017-08-16T06:46:35.124Z,101640.02
2017-08-16T06:49:09.950Z,101647.92
2017-08-16T06:51:44.707Z,101645.38
2017-08-16T06:54:19.433Z,101642.69
2017-08-16T06:56:54.250Z,101642.30
2017-08-16T06:59:28.771Z,101642.45
2017-08-16T07:02:03.578Z,101649.38
2017-08-16T07:04:38.219Z,101645.17
2017-08-16T07:07:12.882Z,101652.67
2017-08-16T07:09:47.576Z,101649.67
2017-08-16T07:12:22.371Z,101655.88
2017-08-16T07:14:57.254Z,101663.38
2017-08-16T07:17:32.025Z,101659.84
2017-08-16T07:20:06.783Z,101664.63
2017-08-16T07:22:42.456Z,101664.08
2017-08-16T07:25:17.175Z,101681.72
2017-08-16T07:27:51.923Z,101676.84
2017-08-16T07:30:26.675Z,101683.34
2017-08-16T07:33:01.398Z,101682.95
2017-08-16T07:35:37.207Z,101671.01
2017-08-16T07:38:11.968Z,101677.91
2017-08-16T07:40:47.660Z,101681.37
2017-08-16T07:43:22.472Z,101677.92
2017-08-16T07:45:57.274Z,101685.27
2017-08-16T07:48:32.124Z,101685.47
2017-08-16T07:51:06.930Z,101684.50
2017-08-16T07:53:41.726Z,101687.70
2017-08-16T07:56:16.467Z,101688.27
2017-08-16T07:58:51.183Z,101694.41
2017-08-16T08:01:25.946Z,101693.76
2017-08-16T08:04:00.676Z,101696.89
2017-08-16T08:06:35.484Z,101705.83
2017-08-16T08:09:10.372Z,101707.58
2017-08-16T08:11:46.187Z,101706.00
2017-08-16T08:14:21.039Z,101709.67
2017-08-16T08:16:55.742Z,101715.54
2017-08-16T08:19:30.515Z,101716.31
2017-08-16T08:22:05.579Z,101715.72
2017-08-16T08:24:40.942Z,101718.31
2017-08-16T08:27:16.694Z,101721.33
2017-08-16T08:29:51.427Z,101726.33
2017-08-16T08:32:26.387Z,101724.02
2017-08-16T08:35:02.230Z,101720.06
2017-08-16T08:37:36.980Z,101720.05
2017-08-16T08:40:11.817Z,101718.41
2017-08-16T08:42:46.324Z,101723.14
2017-08-16T08:45:21.047Z,101720.58
2017-08-16T08:47:55.507Z,101719.48
2017-08-16T08:50:30.379Z,101710.84
2017-08-16T08:53:05.115Z,101711.11
2017-08-16T08:55:39.903Z,101710.05
2017-08-16T08:58:14.675Z,101715.73
2017-08-16T09:00:50.506Z,101717.73
2017-08-16T09:03:24.830Z,101710.05
2017-08-16T09:05:59.605Z,101710.00
2017-08-16T09:08:34.415Z,101711.09
2017-08-16T09:11:09.193Z,101716.41
2017-08-16T09:13:44.967Z,101716.70
2017-08-16T09:16:19.698Z,101727.23
2017-08-16T09:18:54.431Z,101723.95
2017-08-16T09:21:29.052Z,101726.08
2017-08-16T09:24:03.835Z,101724.67
2017-08-16T09:26:38.656Z,101724.20
2017-08-16T09:29:13.386Z,101724.48
2017-08-16T09:31:48.090Z,101725.13
2017-08-16T09:34:23.863Z,101728.58
2017-08-16T09:36:59.719Z,101723.34
2017-08-16T09:39:34.463Z,101725.04
2017-08-16T09:42:09.523Z,101731.52
2017-08-16T09:44:44.011Z,101722.83
2017-08-16T09:47:18.731Z,101725.14
2017-08-16T09:49:54.576Z,101728.20
2017-08-16T09:52:30.347Z,101728.41
2017-08-16T09:55:05.128Z,101729.53
2017-08-16T09:57:39.931Z,101730.55
2017-08-16T10:00:14.707Z,101735.21
2017-08-16T10:02:49.507Z,101731.55
2017-08-16T10:05:24.167Z,101733.42
2017-08-16T10:07:58.890Z,101737.19
2017-08-16T10:10:33.647Z,101733.67
2017-08-16T10:13:09.383Z,101729.73
2017-08-16T10:15:44.050Z,101723.29
2017-08-16T10:18:18.692Z,101734.08
2017-08-16T10:20:53.196Z,101736.14
2017-08-16T10:23:27.936Z,101732.11
2017-08-16T10:26:03.531Z,101719.22
2017-08-16T10:28:38.526Z,101724.97
2017-08-16T10:31:13.023Z,101723.30
2017-08-16T10:33:47.738Z,101718.84
2017-08-16T10:36:22.464Z,101715.19
2017-08-16T10:38:57.155Z,101718.96
2017-08-16T10:41:32.938Z,101723.92
2017-08-16T10:44:07.550Z,101730.08
2017-08-16T10:46:42.319Z,101725.16
2017-08-16T10:49:16.972Z,101729.12
2017-08-16T10:51:51.954Z,101730.15
2017-08-16T10:54:26.605Z,101727.92
2017-08-16T10:57:02.279Z,101725.01
2017-08-16T10:59:37.984Z,101718.39
2017-08-16T11:02:12.682Z,101718.16
2017-08-16T11:04:48.483Z,101720.42
2017-08-16T11:07:23.142Z,101720.23
2017-08-16T11:09:57.827Z,101716.23
2017-08-16T11:12:32.942Z,101724.38
2017-08-16T11:15:08.298Z,101726.81
2017-08-16T11:17:42.910Z,101722.50
2017-08-16T11:20:17.659Z,101718.16
2017-08-16T11:22:52.399Z,101713.69
2017-08-16T11:25:27.366Z,101715.71
2017-08-16T11:28:01.751Z,101720.89
2017-08-16T11:30:36.495Z,101725.83
2017-08-16T11:33:11.212Z,101720.88
2017-08-16T11:35:46.028Z,101722.72
2017-08-16T11:38:20.747Z,101720.01
2017-08-16T11:40:55.416Z,101719.55
2017-08-16T11:43:30.398Z,101713.97
2017-08-16T11:46:05.024Z,101720.51
2017-08-16T11:48:39.859Z,101714.98
2017-08-16T11:51:14.648Z,101717.09
2017-08-16T11:53:49.419Z,101711.78
2017-08-16T11:56:24.047Z,101711.04
2017-08-16T11:58:58.879Z,101712.72
2017-08-16T12:01:33.624Z,101706.95
2017-08-16T12:04:08.532Z,101713.20
2017-08-16T12:06:43.074Z,101712.25
2017-08-16T12:09:18.782Z,101712.66
2017-08-16T12:11:53.579Z,101707.53
2017-08-16T12:14:28.298Z,101702.13
2017-08-16T12:17:02.891Z,101698.89
2017-08-16T12:19:37.632Z,101707.66
2017-08-16T12:22:12.457Z,101704.75
2017-08-16T12:24:47.302Z,101710.33
2017-08-16T12:27:22.235Z,101700.80
2017-08-16T12:29:56.991Z,101705.89
2017-08-16T12:45:31.594Z,101696.10
2017-08-16T12:48:06.100Z,101694.77
2017-08-16T12:50:40.834Z,101691.39
2017-08-16T12:53:15.550Z,101684.53
2017-08-16T12:55:50.383Z,101692.10
2017-08-16T12:58:25.012Z,101685.73
2017-08-16T13:00:59.679Z,101684.34
2017-08-16T13:03:34.464Z,101676.86
2017-08-16T13:06:08.984Z,101680.84
2017-08-16T13:08:43.736Z,101679.81
2017-08-16T13:11:18.500Z,101674.16
2017-08-16T13:13:53.119Z,101669.39
2017-08-16T13:16:27.962Z,101681.11
2017-08-16T13:19:02.646Z,101673.16
2017-08-16T13:21:37.508Z,101677.08
2017-08-16T13:24:12.280Z,101669.39
2017-08-16T13:26:46.883Z,101670.59
2017-08-16T13:29:21.631Z,101663.92
2017-08-16T13:31:56.343Z,101664.71
2017-08-16T13:34:31.086Z,101658.59
2017-08-16T13:37:05.824Z,101660.22
2017-08-16T13:39:40.572Z,101660.21
2017-08-16T13:42:14.971Z,101660.03
2017-08-16T13:44:49.974Z,101651.34
2017-08-16T13:47:24.860Z,101650.91
2017-08-16T13:50:00.706Z,101640.73
2017-08-16T13:52:35.003Z,101642.66
2017-08-16T13:55:10.251Z,101641.53
2017-08-16T13:57:46.122Z,101647.89
2017-08-16T14:00:20.976Z,101642.63
2017-08-16T14:02:55.611Z,101647.94
2017-08-16T14:05:30.511Z,101646.69
2017-08-16T14:08:05.247Z,101648.48
2017-08-16T14:10:39.890Z,101657.32
2017-08-16T14:13:14.635Z,101659.02
2017-08-16T14:15:50.384Z,101653.80
2017-08-16T14:18:25.101Z,101650.52
2017-08-16T14:20:59.974Z,101657.85
2017-08-16T14:23:34.748Z,101652.53
2017-08-16T14:26:09.579Z,101665.53
2017-08-16T14:28:44.399Z,101656.87
2017-08-16T14:31:19.111Z,101658.73
2017-08-16T14:33:53.911Z,101660.84
2017-08-16T14:36:28.804Z,101661.06
2017-08-16T14:39:03.079Z,101658.81
2017-08-16T14:41:37.975Z,101654.31
2017-08-16T14:44:12.695Z,101652.95
2017-08-16T14:46:47.183Z,101656.81
2017-08-16T14:49:22.055Z,101645.67
2017-08-16T14:51:56.871Z,101653.22
2017-08-16T14:54:31.034Z,101643.11
2017-08-16T14:57:07.140Z,101637.91
2017-08-16T14:59:42.062Z,101638.11
2017-08-16T15:02:16.868Z,101631.20
2017-08-16T15:04:52.451Z,101625.28
2017-08-16T15:07:27.858Z,101626.24
2017-08-16T15:10:02.962Z,101618.98
2017-08-16T15:12:38.699Z,101621.05
2017-08-16T15:15:13.227Z,101623.44
2017-08-16T15:17:47.838Z,101623.41
2017-08-16T15:20:23.799Z,101618.91
2017-08-16T15:22:58.452Z,101613.47
2017-08-16T15:25:33.182Z,101610.83
2017-08-16T15:28:07.715Z,101603.12
2017-08-16T15:30:42.439Z,101608.74
2017-08-16T15:33:17.180Z,101613.15
2017-08-16T15:35:51.876Z,101615.35
2017-08-16T15:38:26.637Z,101614.84
2017-08-16T15:41:01.308Z,101623.19
2017-08-16T15:43:37.191Z,101621.05
2017-08-16T15:46:12.120Z,101621.84
2017-08-16T15:48:46.930Z,101615.47
2017-08-16T15:51:21.647Z,101615.72
2017-08-16T15:53:56.323Z,101622.61
2017-08-16T15:56:30.926Z,101625.27
2017-08-16T15:59:05.687Z,101625.06
2017-08-16T16:01:40.350Z,101627.09
2017-08-16T16:04:15.170Z,101627.27
2017-08-16T16:06:50.772Z,101624.32
2017-08-16T16:09:25.443Z,101622.72
2017-08-16T16:11:59.728Z,101621.77
2017-08-16T16:14:34.739Z,101621.73
2017-08-16T16:17:10.535Z,101623.89
2017-08-16T16:19:45.191Z,101624.99
2017-08-16T16:22:20.067Z,101627.98
2017-08-16T16:24:55.420Z,101621.79
2017-08-16T16:27:30.200Z,101622.23
2017-08-16T16:30:04.846Z,101621.17
2017-08-16T16:32:40.604Z,101622.67
2017-08-16T16:35:16.198Z,101619.52
2017-08-16T16:37:50.835Z,101618.55
2017-08-16T16:40:25.711Z,101619.79
2017-08-16T16:43:00.418Z,101610.58
2017-08-16T16:45:36.044Z,101614.56
2017-08-16T16:48:10.384Z,101602.16
2017-08-16T16:50:45.552Z,101605.80
2017-08-16T16:53:20.311Z,101601.94
2017-08-16T16:55:55.123Z,101605.75
2017-08-16T16:58:29.662Z,101604.77
2017-08-16T17:01:04.392Z,101599.41
2017-08-16T17:03:40.030Z,101605.47
2017-08-16T17:06:15.643Z,101599.25
2017-08-16T17:08:50.331Z,101589.72
2017-08-16T17:11:25.809Z,101595.03
2017-08-16T17:14:01.629Z,101599.09
2017-08-16T17:16:36.463Z,101596.17
2017-08-16T17:19:11.239Z,101601.17
2017-08-16T17:21:45.943Z,101601.86
2017-08-16T17:24:20.709Z,101602.50
2017-08-16T17:26:55.315Z,101601.91
2017-08-16T17:29:30.054Z,101594.72
2017-08-16T17:32:04.779Z,101599.70
2017-08-16T17:34:39.291Z,101597.30
2017-08-16T17:37:14.074Z,101600.63
2017-08-16T17:39:49.698Z,101602.23
2017-08-16T17:42:24.431Z,101600.50
2017-08-16T17:44:59.184Z,101598.58
2017-08-16T17:47:33.895Z,101596.76
2017-08-16T17:50:08.548Z,101587.52
2017-08-16T17:52:43.166Z,101590.38
2017-08-16T17:55:17.814Z,101587.73
2017-08-16T17:57:52.424Z,101576.39
2017-08-16T18:00:27.002Z,101567.31
2017-08-16T18:03:01.642Z,101582.62
2017-08-16T18:05:36.239Z,101584.85
2017-08-16T18:08:11.046Z,101583.80
2017-08-16T18:10:45.748Z,101587.29
2017-08-16T18:13:20.350Z,101576.47
2017-08-16T18:15:54.955Z,101570.16
2017-08-16T18:18:29.724Z,101580.23
2017-08-16T18:21:04.336Z,101579.37
2017-08-16T18:23:38.952Z,101582.99
2017-08-16T18:26:13.648Z,101586.78
2017-08-16T18:28:48.248Z,101587.55
2017-08-16T18:31:22.764Z,101595.67
2017-08-16T18:33:57.499Z,101584.19
2017-08-16T18:36:32.009Z,101593.09
2017-08-16T18:39:06.892Z,101594.90
2017-08-16T18:41:42.140Z,101589.95
2017-08-16T18:44:17.632Z,101589.52
2017-08-16T18:46:52.416Z,101584.98
2017-08-16T18:49:27.051Z,101588.97
2017-08-16T18:52:01.813Z,101586.06
2017-08-16T18:54:36.336Z,101583.47
2017-08-16T18:57:10.938Z,101586.21
2017-08-16T18:59:45.484Z,101587.74
2017-08-16T19:02:20.219Z,101591.58
2017-08-16T19:04:54.911Z,101594.08
2017-08-16T19:07:29.442Z,101600.08
2017-08-16T19:10:03.831Z,101599.00
2017-08-16T19:12:38.784Z,101602.98
2017-08-16T19:15:13.238Z,101600.16
2017-08-16T19:17:47.961Z,101607.09
2017-08-16T19:20:22.642Z,101612.45
2017-08-16T19:22:57.299Z,101604.59
2017-08-16T19:25:31.727Z,101607.05
2017-08-16T19:28:06.427Z,101603.36
2017-08-16T19:30:42.137Z,101609.33
2017-08-16T19:33:17.840Z,101608.84
2017-08-16T19:35:52.487Z,101603.80
2017-08-16T19:38:27.191Z,101606.58
2017-08-16T19:41:02.742Z,101610.30
2017-08-16T19:43:37.330Z,101614.38
2017-08-16T19:46:13.008Z,101615.44
2017-08-16T19:48:47.611Z,101614.42
2017-08-16T19:51:22.268Z,101615.27
2017-08-16T19:53:56.991Z,101623.06
2017-08-16T19:56:32.860Z,101628.88
2017-08-16T19:59:07.500Z,101621.51
2017-08-16T20:01:42.159Z,101623.18
2017-08-16T20:04:17.779Z,101619.40
2017-08-16T20:06:52.486Z,101615.08
2017-08-16T20:09:27.147Z,101617.97
2017-08-16T20:12:01.837Z,101613.04
2017-08-16T20:14:36.571Z,101610.53
2017-08-16T20:17:11.199Z,101610.84
2017-08-16T20:19:47.007Z,101605.27
2017-08-16T20:22:22.002Z,101608.80
2017-08-16T20:24:57.336Z,101608.95
2017-08-16T20:27:31.755Z,101605.22
2017-08-16T20:30:05.991Z,101611.91
2017-08-16T20:32:41.935Z,101610.85
2017-08-16T20:35:16.547Z,101608.61
2017-08-16T20:37:51.255Z,101605.13
2017-08-16T20:40:25.783Z,101599.66
2017-08-16T20:43:00.284Z,101598.52
2017-08-16T20:45:34.867Z,101602.01
2017-08-16T20:48:09.384Z,101594.48
2017-08-16T20:50:43.980Z,101585.25
2017-08-16T20:53:18.771Z,101585.92
2017-08-16T20:55:53.184Z,101577.62
2017-08-16T20:58:27.801Z,101575.69
2017-08-16T21:01:02.359Z,101579.28
2017-08-16T21:03:36.964Z,101578.44
2017-08-16T21:06:11.744Z,101576.80
2017-08-16T21:08:46.367Z,101567.83
2017-08-16T21:11:21.019Z,101571.59
2017-08-16T21:13:55.752Z,101572.95
2017-08-16T21:16:30.250Z,101565.41
2017-08-16T21:19:05.862Z,101561.34
2017-08-16T21:21:40.548Z,101557.31
2017-08-16T21:24:16.179Z,101564.55
2017-08-16T21:26:51.007Z,101564.95
2017-08-16T21:29:25.646Z,101562.95
2017-08-16T21:32:00.260Z,101565.08
2017-08-16T21:34:34.809Z,101555.66
2017-08-16T21:37:10.360Z,101560.16
2017-08-16T21:39:44.804Z,101561.44
2017-08-16T21:42:19.297Z,101554.99
2017-08-16T21:44:53.935Z,101552.52
2017-08-16T21:47:28.608Z,101553.09
2017-08-16T21:50:03.180Z,101552.31
2017-08-16T21:52:37.979Z,101543.91
2017-08-16T21:55:12.671Z,101542.10
2017-08-16T21:57:47.244Z,101535.17
2017-08-16T22:00:21.434Z,101540.11
2017-08-16T22:02:56.258Z,101533.38
2017-08-16T22:05:31.972Z,101535.36
2017-08-16T22:08:07.800Z,101534.35
2017-08-16T22:10:42.451Z,101534.05
2017-08-16T22:13:17.141Z,101532.31
2017-08-16T22:15:51.867Z,101526.69
2017-08-16T22:18:27.465Z,101517.76
2017-08-16T22:21:03.203Z,101511.13
2017-08-16T22:23:37.747Z,101508.36
2017-08-16T22:26:12.463Z,101506.30
2017-08-16T22:28:46.984Z,101504.05
2017-08-16T22:31:21.723Z,101504.11
2017-08-16T22:33:56.500Z,101502.41
2017-08-16T22:36:31.171Z,101500.04
2017-08-16T22:39:05.652Z,101501.52
2017-08-16T22:41:40.526Z,101499.97
2017-08-16T22:44:15.175Z,101497.93
2017-08-16T22:46:49.963Z,101496.50
2017-08-16T22:49:24.660Z,101497.87
2017-08-16T22:52:00.368Z,101494.87
2017-08-16T22:54:35.068Z,101491.51
2017-08-16T22:57:09.822Z,101489.67
2017-08-16T22:59:44.519Z,101484.47
2017-08-16T23:02:19.189Z,101488.48
2017-08-16T23:04:53.909Z,101492.09
2017-08-16T23:07:28.668Z,101483.20
2017-08-16T23:10:03.339Z,101485.45
2017-08-16T23:12:38.014Z,101480.95
2017-08-16T23:15:13.611Z,101470.47
2017-08-16T23:17:48.255Z,101456.19
2017-08-16T23:20:23.047Z,101455.91
2017-08-16T23:22:57.699Z,101465.86
2017-08-16T23:25:32.360Z,101465.95
2017-08-16T23:28:07.025Z,101471.13
2017-08-16T23:30:41.687Z,101466.69
2017-08-16T23:33:16.411Z,101463.03
2017-08-16T23:35:50.938Z,101461.85
2017-08-16T23:38:25.712Z,101452.89
2017-08-16T23:41:00.280Z,101454.08
2017-08-16T23:43:35.028Z,101439.78
2017-08-16T23:46:09.540Z,101431.61
2017-08-16T23:48:45.307Z,101427.50
2017-08-16T23:51:20.023Z,101425.60
2017-08-16T23:53:54.674Z,101422.47
2017-08-16T23:56:29.199Z,101422.09
2017-08-16T23:59:04.756Z,101421.65
